createdAt,value
2023-01-29T01:08:35.097Z,79.38
2023-01-29T01:09:35.435Z,79.17
2023-01-29T01:10:35.169Z,79.49
2023-01-29T01:11:35.456Z,79.59
2023-01-29T01:12:35.745Z,80.39
2023-01-29T01:13:35.275Z,76.85
2023-01-29T01:14:35.413Z,78.62
2023-01-29T01:15:35.713Z,79.03
2023-01-29T01:16:35.401Z,79.45
2023-01-29T01:17:35.774Z,79.45
2023-01-29T01:18:35.714Z,78.00
2023-01-29T01:19:35.103Z,77.37
2023-01-29T01:20:35.663Z,79.66
2023-01-29T01:21:34.385Z,79.62
2023-01-29T01:22:35.505Z,79.10
2023-01-29T01:23:35.597Z,78.38
2023-01-29T01:24:35.144Z,76.51
2023-01-29T01:25:35.036Z,78.17
2023-01-29T01:26:35.275Z,77.34
2023-01-29T01:27:35.029Z,77.44
2023-01-29T01:28:35.850Z,77.34
2023-01-29T01:29:34.984Z,77.55
2023-01-29T01:30:36.086Z,77.44
2023-01-29T01:31:35.231Z,78.58
2023-01-29T01:32:35.646Z,77.44
2023-01-29T01:33:35.095Z,77.75
2023-01-29T01:34:34.854Z,77.75
2023-01-29T01:35:35.149Z,76.89
2023-01-29T01:36:35.002Z,78.44
2023-01-29T01:37:35.055Z,77.72
2023-01-29T01:38:34.794Z,76.99
2023-01-29T01:39:35.088Z,77.92
2023-01-29T01:40:34.806Z,76.68
2023-01-29T01:41:34.995Z,75.64
2023-01-29T01:42:34.931Z,75.54
2023-01-29T01:43:34.956Z,77.30
2023-01-29T01:44:35.196Z,77.09
2023-01-29T01:45:34.156Z,75.57
2023-01-29T01:46:34.804Z,77.44
2023-01-29T01:47:35.403Z,77.55
2023-01-29T01:48:35.211Z,78.83
2023-01-29T01:49:34.945Z,79.45
2023-01-29T01:50:34.928Z,77.20
2023-01-29T01:51:34.665Z,79.87
2023-01-29T01:52:34.847Z,77.79
2023-01-29T01:53:34.654Z,77.79
2023-01-29T01:54:34.844Z,78.72
2023-01-29T01:55:34.725Z,79.97
2023-01-29T01:56:34.895Z,78.41
2023-01-29T01:57:34.715Z,79.24
2023-01-29T01:58:34.840Z,78.83
2023-01-29T01:59:34.755Z,79.76
2023-01-29T02:00:34.794Z,79.83
2023-01-29T02:01:34.725Z,77.96
2023-01-29T02:02:34.696Z,77.82
2023-01-29T02:03:34.734Z,77.61
2023-01-29T02:04:34.766Z,76.61
2023-01-29T02:05:34.735Z,75.67
2023-01-29T02:06:35.559Z,77.34
2023-01-29T02:07:34.736Z,78.38
2023-01-29T02:08:34.564Z,76.95
2023-01-29T02:09:34.854Z,77.69
2023-01-29T02:10:34.556Z,78.31
2023-01-29T02:11:34.715Z,78.34
2023-01-29T02:12:34.525Z,78.34
2023-01-29T02:13:34.648Z,77.93
2023-01-29T02:14:34.498Z,78.66
2023-01-29T02:15:34.674Z,77.34
2023-01-29T02:16:34.498Z,77.89
2023-01-29T02:17:34.763Z,78.31
2023-01-29T02:18:34.624Z,77.17
2023-01-29T02:19:34.626Z,78.52
2023-01-29T02:20:34.535Z,78.10
2023-01-29T02:21:34.605Z,77.58
2023-01-29T02:22:34.634Z,77.58
2023-01-29T02:23:34.417Z,78.00
2023-01-29T02:24:34.513Z,77.58
2023-01-29T02:25:34.375Z,77.48
2023-01-29T02:26:33.695Z,78.83
2023-01-29T02:27:34.976Z,76.47
2023-01-29T02:28:34.706Z,75.85
2023-01-29T02:29:34.368Z,78.34
2023-01-29T02:30:34.712Z,76.37
2023-01-29T02:31:34.383Z,78.24
2023-01-29T02:32:34.437Z,77.93
2023-01-29T02:33:35.386Z,78.45
2023-01-29T02:34:34.594Z,79.18
2023-01-29T02:35:34.409Z,78.34
2023-01-29T02:36:34.908Z,77.41
2023-01-29T02:37:34.328Z,77.51
2023-01-29T02:38:34.174Z,76.99
2023-01-29T02:39:34.415Z,78.56
2023-01-29T02:40:34.244Z,79.18
2023-01-29T02:41:34.333Z,78.87
2023-01-29T02:42:34.265Z,78.97
2023-01-29T02:43:34.374Z,78.94
2023-01-29T02:44:33.943Z,76.86
2023-01-29T02:45:34.345Z,75.85
2023-01-29T02:46:34.204Z,78.45
2023-01-29T02:47:34.455Z,78.34
2023-01-29T02:48:34.184Z,78.24
2023-01-29T02:49:34.277Z,78.94
2023-01-29T02:50:34.354Z,77.20
2023-01-29T02:51:34.357Z,78.97
2023-01-29T02:52:34.248Z,77.51
2023-01-29T02:53:34.274Z,78.14
2023-01-29T02:54:34.185Z,78.87
2023-01-29T02:55:34.165Z,78.94
2023-01-29T02:56:34.206Z,77.37
2023-01-29T02:57:34.006Z,77.69
2023-01-29T02:58:34.173Z,77.48
2023-01-29T02:59:34.033Z,76.26
2023-01-29T03:00:34.175Z,77.83
2023-01-29T03:01:34.104Z,77.76
2023-01-29T03:02:34.242Z,77.86
2023-01-29T03:03:34.119Z,79.43
2023-01-29T03:04:35.018Z,80.16
2023-01-29T03:05:34.036Z,78.73
2023-01-29T03:06:34.194Z,75.26
2023-01-29T03:07:34.075Z,77.34
2023-01-29T03:08:34.065Z,77.97
2023-01-29T03:09:34.463Z,77.97
2023-01-29T03:10:34.114Z,75.05
2023-01-29T03:11:34.043Z,76.30
2023-01-29T03:12:34.179Z,76.82
2023-01-29T03:13:34.066Z,77.03
2023-01-29T03:14:33.847Z,78.34
2023-01-29T03:15:34.043Z,77.83
2023-01-29T03:16:33.284Z,76.06
2023-01-29T03:17:34.274Z,76.06
2023-01-29T03:18:33.896Z,76.89
2023-01-29T03:19:34.057Z,76.57
2023-01-29T03:20:33.934Z,75.81
2023-01-29T03:21:34.004Z,77.27
2023-01-29T03:22:33.901Z,75.09
2023-01-29T03:23:34.034Z,74.01
2023-01-29T03:24:34.426Z,74.74
2023-01-29T03:25:33.975Z,74.95
2023-01-29T03:26:33.916Z,73.28
2023-01-29T03:27:33.826Z,72.13
2023-01-29T03:28:33.894Z,73.00
2023-01-29T03:29:33.725Z,74.56
2023-01-29T03:30:33.834Z,73.24
2023-01-29T03:31:33.890Z,73.55
2023-01-29T03:32:33.884Z,74.52
2023-01-29T03:33:33.720Z,73.69
2023-01-29T03:34:33.884Z,73.41
2023-01-29T03:35:33.763Z,73.55
2023-01-29T03:36:33.848Z,76.16
2023-01-29T03:37:33.773Z,76.54
2023-01-29T03:38:33.834Z,74.98
2023-01-29T03:39:33.944Z,75.50
2023-01-29T03:40:34.273Z,74.87
2023-01-29T03:41:33.724Z,75.92
2023-01-29T03:42:33.544Z,76.12
2023-01-29T03:43:33.775Z,74.28
2023-01-29T03:44:33.503Z,76.37
2023-01-29T03:45:33.872Z,76.23
2023-01-29T03:46:33.564Z,76.75
2023-01-29T03:47:33.737Z,75.50
2023-01-29T03:48:33.535Z,77.48
2023-01-29T03:49:33.800Z,74.25
2023-01-29T03:50:33.613Z,73.10
2023-01-29T03:51:33.711Z,73.83
2023-01-29T03:52:33.509Z,74.15
2023-01-29T03:53:33.742Z,72.89
2023-01-29T03:54:33.607Z,74.56
2023-01-29T03:55:33.684Z,73.62
2023-01-29T03:56:33.753Z,73.41
2023-01-29T03:57:33.528Z,75.50
2023-01-29T03:58:33.107Z,75.81
2023-01-29T03:59:33.365Z,75.81
2023-01-29T04:00:33.324Z,75.67
2023-01-29T04:01:33.985Z,75.36
2023-01-29T04:02:34.777Z,73.66
2023-01-29T04:03:34.456Z,72.75
2023-01-29T04:04:33.713Z,73.76
2023-01-29T04:05:34.044Z,73.55
2023-01-29T04:06:34.414Z,72.72
2023-01-29T04:07:32.746Z,73.17
2023-01-29T04:08:33.934Z,74.42
2023-01-29T04:09:34.055Z,72.78
2023-01-29T04:10:33.945Z,71.57
2023-01-29T04:11:33.401Z,73.97
2023-01-29T04:12:34.376Z,73.97
2023-01-29T04:13:34.067Z,73.97
2023-01-29T04:14:34.080Z,73.03
2023-01-29T04:15:33.573Z,75.74
2023-01-29T04:16:34.056Z,74.28
2023-01-29T04:17:33.397Z,75.12
2023-01-29T04:18:33.192Z,73.66
2023-01-29T04:19:33.395Z,73.69
2023-01-29T04:20:33.954Z,73.07
2023-01-29T04:21:33.554Z,75.88
2023-01-29T04:22:33.859Z,76.20
2023-01-29T04:23:33.753Z,75.57
2023-01-29T04:24:33.234Z,73.90
2023-01-29T04:25:33.370Z,74.63
2023-01-29T04:26:33.465Z,75.36
2023-01-29T04:27:33.377Z,74.52
2023-01-29T04:28:33.215Z,75.05
2023-01-29T04:29:33.349Z,76.51
2023-01-29T04:30:33.898Z,74.42
2023-01-29T04:31:33.181Z,72.96
2023-01-29T04:32:33.238Z,75.60
2023-01-29T04:33:33.054Z,76.02
2023-01-29T04:34:33.293Z,75.60
2023-01-29T04:35:33.128Z,75.71
2023-01-29T04:36:33.245Z,74.35
2023-01-29T04:37:33.045Z,75.71
2023-01-29T04:38:33.876Z,76.44
2023-01-29T04:39:33.997Z,75.39
2023-01-29T04:40:33.273Z,75.29
2023-01-29T04:41:33.024Z,75.81
2023-01-29T04:42:33.923Z,75.92
2023-01-29T04:43:33.034Z,75.08
2023-01-29T04:44:33.273Z,74.98
2023-01-29T04:45:33.298Z,75.18
2023-01-29T04:46:33.576Z,73.20
2023-01-29T04:47:33.805Z,74.98
2023-01-29T04:48:32.935Z,75.71
2023-01-29T04:49:33.085Z,74.77
2023-01-29T04:50:32.293Z,76.54
2023-01-29T04:51:33.329Z,76.75
2023-01-29T04:52:32.924Z,75.18
2023-01-29T04:53:33.224Z,73.62
2023-01-29T04:54:32.933Z,75.08
2023-01-29T04:55:33.023Z,75.22
2023-01-29T04:56:32.253Z,74.80
2023-01-29T04:57:33.076Z,74.69
2023-01-29T04:58:32.185Z,76.26
2023-01-29T04:59:32.998Z,75.12
2023-01-29T05:00:32.924Z,75.01
2023-01-29T05:01:33.023Z,75.22
2023-01-29T05:02:32.986Z,76.26
2023-01-29T05:03:32.976Z,75.12
2023-01-29T05:04:32.884Z,74.98
2023-01-29T05:05:33.018Z,74.04
2023-01-29T05:06:32.890Z,74.49
2023-01-29T05:07:32.842Z,74.28
2023-01-29T05:08:33.107Z,74.91
2023-01-29T05:09:33.453Z,74.69
2023-01-29T05:10:32.854Z,74.07
2023-01-29T05:11:33.324Z,74.73
2023-01-29T05:12:32.865Z,74.42
2023-01-29T05:13:32.841Z,75.63
2023-01-29T05:14:32.795Z,75.08
2023-01-29T05:15:32.764Z,75.18
2023-01-29T05:16:32.854Z,73.52
2023-01-29T05:17:32.977Z,73.83
2023-01-29T05:18:32.928Z,74.14
2023-01-29T05:19:33.244Z,72.50
2023-01-29T05:20:31.963Z,72.30
2023-01-29T05:21:32.852Z,73.96
2023-01-29T05:22:32.706Z,74.18
2023-01-29T05:23:32.757Z,73.34
2023-01-29T05:24:32.700Z,73.47
2023-01-29T05:25:33.403Z,73.47
2023-01-29T05:26:32.573Z,73.16
2023-01-29T05:27:32.715Z,73.61
2023-01-29T05:28:32.594Z,74.87
2023-01-29T05:29:32.855Z,74.90
2023-01-29T05:30:32.634Z,75.22
2023-01-29T05:31:33.196Z,76.16
2023-01-29T05:32:32.573Z,75.95
2023-01-29T05:33:32.717Z,76.37
2023-01-29T05:34:32.559Z,75.63
2023-01-29T05:35:32.498Z,75.95
2023-01-29T05:36:33.052Z,76.06
2023-01-29T05:37:32.666Z,74.62
2023-01-29T05:38:32.575Z,75.39
2023-01-29T05:39:33.005Z,75.70
2023-01-29T05:40:32.695Z,76.82
2023-01-29T05:41:32.564Z,76.51
2023-01-29T05:42:32.634Z,75.49
2023-01-29T05:43:32.544Z,76.75
2023-01-29T05:44:32.716Z,75.74
2023-01-29T05:45:31.707Z,78.15
2023-01-29T05:46:32.656Z,77.28
2023-01-29T05:47:32.406Z,76.75
2023-01-29T05:48:32.521Z,76.44
2023-01-29T05:49:32.455Z,77.17
2023-01-29T05:50:32.478Z,77.07
2023-01-29T05:51:32.464Z,77.48
2023-01-29T05:52:32.297Z,78.53
2023-01-29T05:53:32.463Z,76.61
2023-01-29T05:54:32.316Z,76.93
2023-01-29T05:55:32.475Z,77.03
2023-01-29T05:56:32.503Z,77.62
2023-01-29T05:57:32.466Z,76.89
2023-01-29T05:58:32.484Z,76.93
2023-01-29T05:59:32.426Z,74.55
2023-01-29T06:00:32.284Z,78.29
2023-01-29T06:01:32.428Z,77.14
2023-01-29T06:02:32.425Z,75.25
2023-01-29T06:03:32.398Z,76.93
2023-01-29T06:04:32.245Z,77.14
2023-01-29T06:05:32.357Z,76.30
2023-01-29T06:06:32.304Z,76.47
2023-01-29T06:07:32.335Z,76.89
2023-01-29T06:08:32.294Z,74.41
2023-01-29T06:09:32.107Z,75.35
2023-01-29T06:10:32.273Z,75.57
2023-01-29T06:11:32.228Z,74.94
2023-01-29T06:12:32.285Z,74.84
2023-01-29T06:13:32.216Z,76.09
2023-01-29T06:14:32.268Z,75.63
2023-01-29T06:15:32.074Z,74.90
2023-01-29T06:16:32.311Z,74.94
2023-01-29T06:17:32.089Z,74.94
2023-01-29T06:18:32.215Z,77.24
2023-01-29T06:19:32.284Z,74.94
2023-01-29T06:20:32.207Z,74.62
2023-01-29T06:21:32.144Z,75.01
2023-01-29T06:22:32.190Z,75.74
2023-01-29T06:23:32.168Z,74.90
2023-01-29T06:24:32.249Z,74.69
2023-01-29T06:25:32.483Z,76.57
2023-01-29T06:26:31.972Z,73.96
2023-01-29T06:27:32.175Z,72.53
2023-01-29T06:28:31.948Z,73.82
2023-01-29T06:29:32.174Z,75.39
2023-01-29T06:30:32.066Z,76.33
2023-01-29T06:31:38.775Z,75.08
2023-01-29T06:32:31.974Z,74.45
2023-01-29T06:33:32.099Z,76.86
2023-01-29T06:34:31.926Z,78.18
2023-01-29T06:35:32.094Z,77.42
2023-01-29T06:36:31.945Z,76.06
2023-01-29T06:37:32.227Z,74.07
2023-01-29T06:38:31.973Z,74.52
2023-01-29T06:39:32.055Z,75.35
2023-01-29T06:40:32.023Z,77.24
2023-01-29T06:41:31.915Z,75.74
2023-01-29T06:42:32.063Z,76.47
2023-01-29T06:43:31.864Z,74.35
2023-01-29T06:44:31.944Z,75.18
2023-01-29T06:45:31.932Z,73.23
2023-01-29T06:46:32.026Z,76.06
2023-01-29T06:47:31.819Z,74.17
2023-01-29T06:48:32.010Z,74.80
2023-01-29T06:49:31.844Z,74.80
2023-01-29T06:50:32.004Z,74.73
2023-01-29T06:51:31.833Z,76.47
2023-01-29T06:52:32.114Z,73.99
2023-01-29T06:53:31.811Z,74.94
2023-01-29T06:54:31.849Z,74.90
2023-01-29T06:55:31.874Z,76.57
2023-01-29T06:56:31.682Z,77.80
2023-01-29T06:57:31.914Z,75.49
2023-01-29T06:58:31.605Z,74.45
2023-01-29T06:59:31.830Z,75.29
2023-01-29T07:00:31.681Z,73.09
2023-01-29T07:01:36.172Z,73.72
2023-01-29T07:02:31.602Z,74.24
2023-01-29T07:03:31.804Z,74.66
2023-01-29T07:04:31.595Z,75.39
2023-01-29T07:05:31.956Z,74.76
2023-01-29T07:06:31.807Z,74.76
2023-01-29T07:07:31.780Z,73.93
2023-01-29T07:08:31.713Z,74.84
2023-01-29T07:09:31.850Z,74.35
2023-01-29T07:10:31.599Z,75.04
2023-01-29T07:11:31.745Z,72.33
2023-01-29T07:12:31.584Z,75.26
2023-01-29T07:13:31.486Z,72.33
2023-01-29T07:14:31.655Z,73.16
2023-01-29T07:15:31.522Z,73.47
2023-01-29T07:16:31.746Z,73.58
2023-01-29T07:17:31.457Z,74.63
2023-01-29T07:18:31.701Z,73.13
2023-01-29T07:19:31.539Z,73.02
2023-01-29T07:20:31.677Z,73.44
2023-01-29T07:21:31.657Z,71.77
2023-01-29T07:22:31.556Z,73.55
2023-01-29T07:23:31.503Z,73.62
2023-01-29T07:24:31.721Z,71.42
2023-01-29T07:25:31.574Z,70.80
2023-01-29T07:26:31.544Z,70.80
2023-01-29T07:27:31.478Z,71.67
2023-01-29T07:28:31.452Z,71.77
2023-01-29T07:29:31.505Z,73.24
2023-01-29T07:30:31.346Z,71.56
2023-01-29T07:31:31.680Z,72.50
2023-01-29T07:32:31.515Z,72.50
2023-01-29T07:33:31.477Z,73.24
2023-01-29T07:34:31.335Z,73.93
2023-01-29T07:35:31.445Z,72.75
2023-01-29T07:36:31.433Z,71.91
2023-01-29T07:37:31.423Z,70.66
2023-01-29T07:38:31.334Z,71.70
2023-01-29T07:39:31.393Z,70.45
2023-01-29T07:40:31.356Z,69.72
2023-01-29T07:41:31.484Z,70.04
2023-01-29T07:42:31.344Z,70.66
2023-01-29T07:43:31.403Z,70.56
2023-01-29T07:44:31.387Z,70.66
2023-01-29T07:45:31.216Z,69.72
2023-01-29T07:46:31.437Z,70.56
2023-01-29T07:47:31.279Z,71.11
2023-01-29T07:48:31.416Z,71.08
2023-01-29T07:49:31.282Z,69.44
2023-01-29T07:50:31.074Z,69.96
2023-01-29T07:51:31.223Z,71.46
2023-01-29T07:52:35.785Z,71.77
2023-01-29T07:53:31.280Z,70.73
2023-01-29T07:54:31.225Z,69.37
2023-01-29T07:55:31.098Z,70.62
2023-01-29T07:56:31.248Z,71.84
2023-01-29T07:57:31.091Z,70.38
2023-01-29T07:58:31.331Z,71.64
2023-01-29T07:59:31.106Z,69.68
2023-01-29T08:00:31.020Z,70.80
2023-01-29T08:01:31.127Z,70.83
2023-01-29T08:02:31.037Z,71.74
2023-01-29T08:03:31.216Z,69.86
2023-01-29T08:04:31.059Z,70.59
2023-01-29T08:05:31.122Z,69.96
2023-01-29T08:06:31.016Z,70.45
2023-01-29T08:07:31.155Z,70.45
2023-01-29T08:08:30.959Z,69.93
2023-01-29T08:09:31.399Z,70.53
2023-01-29T08:10:31.159Z,68.02
2023-01-29T08:11:31.175Z,69.17
2023-01-29T08:12:31.166Z,70.42
2023-01-29T08:13:31.059Z,68.13
2023-01-29T08:14:31.011Z,69.38
2023-01-29T08:15:31.050Z,70.42
2023-01-29T08:16:31.088Z,70.18
2023-01-29T08:17:30.829Z,67.92
2023-01-29T08:18:30.995Z,68.99
2023-01-29T08:19:30.825Z,68.37
2023-01-29T08:20:30.976Z,68.92
2023-01-29T08:21:30.857Z,67.66
2023-01-29T08:22:31.057Z,71.08
2023-01-29T08:23:30.865Z,70.25
2023-01-29T08:24:41.630Z,69.62
2023-01-29T08:25:30.850Z,70.35
2023-01-29T08:26:30.937Z,68.89
2023-01-29T08:27:30.827Z,69.72
2023-01-29T08:28:31.189Z,69.62
2023-01-29T08:29:30.806Z,70.14
2023-01-29T08:30:30.909Z,67.35
2023-01-29T08:31:30.862Z,68.92
2023-01-29T08:32:30.947Z,67.98
2023-01-29T08:33:39.089Z,69.23
2023-01-29T08:34:31.957Z,69.76
2023-01-29T08:35:30.986Z,70.14
2023-01-29T08:36:30.026Z,70.21
2023-01-29T08:37:30.898Z,70.94
2023-01-29T08:38:30.647Z,70.60
2023-01-29T08:39:33.113Z,69.45
2023-01-29T08:40:30.659Z,69.45
2023-01-29T08:41:30.087Z,68.30
2023-01-29T08:42:30.703Z,69.87
2023-01-29T08:43:29.977Z,69.97
2023-01-29T08:44:30.637Z,69.42
2023-01-29T08:45:30.719Z,70.15
2023-01-29T08:46:29.993Z,68.27
2023-01-29T08:47:32.005Z,67.44
2023-01-29T08:48:31.141Z,68.07
2023-01-29T08:49:30.487Z,67.44
2023-01-29T08:50:30.712Z,69.31
2023-01-29T08:51:30.535Z,67.96
2023-01-29T08:52:30.693Z,69.53
2023-01-29T08:53:29.886Z,68.69
2023-01-29T08:54:30.625Z,67.96
2023-01-29T08:55:30.568Z,67.44
2023-01-29T08:56:29.822Z,68.17
2023-01-29T08:57:31.416Z,67.13
2023-01-29T08:58:30.647Z,69.00
2023-01-29T08:59:30.567Z,69.18
2023-01-29T09:00:29.798Z,68.94
2023-01-29T09:01:31.674Z,68.60
2023-01-29T09:02:30.648Z,70.40
2023-01-29T09:03:30.478Z,68.60
2023-01-29T09:04:30.780Z,66.39
2023-01-29T09:05:30.597Z,65.42
2023-01-29T09:06:30.397Z,64.90
2023-01-29T09:07:29.766Z,63.73
2023-01-29T09:08:31.889Z,63.87
2023-01-29T09:09:30.566Z,64.36
2023-01-29T09:10:29.725Z,66.02
2023-01-29T09:11:30.502Z,63.21
2023-01-29T09:12:30.296Z,65.60
2023-01-29T09:13:30.496Z,62.90
2023-01-29T09:14:30.377Z,62.70
2023-01-29T09:15:30.597Z,62.46
2023-01-29T09:16:30.425Z,62.38
2023-01-29T09:17:30.415Z,65.19
2023-01-29T09:18:30.396Z,64.98
2023-01-29T09:19:30.399Z,65.32
2023-01-29T09:20:29.597Z,66.88
2023-01-29T09:21:30.415Z,69.27
2023-01-29T09:22:30.549Z,69.79
2023-01-29T09:23:30.168Z,69.27
2023-01-29T09:24:30.447Z,68.20
2023-01-29T09:25:30.495Z,70.41
2023-01-29T09:26:29.578Z,68.33
2023-01-29T09:27:29.525Z,67.82
2023-01-29T09:28:30.836Z,72.87
2023-01-29T09:29:29.495Z,74.11
2023-01-29T09:30:29.516Z,71.18
2023-01-29T09:31:30.638Z,69.21
2023-01-29T09:33:30.944Z,67.58
2023-01-29T09:34:30.436Z,69.45
2023-01-29T09:35:30.176Z,69.86
2023-01-29T09:36:30.214Z,70.31
2023-01-29T09:37:30.194Z,67.40
2023-01-29T09:38:30.013Z,67.82
2023-01-29T09:39:30.233Z,70.28
2023-01-29T09:40:30.082Z,70.28
2023-01-29T09:41:30.211Z,66.12
2023-01-29T09:42:30.112Z,65.39
2023-01-29T09:43:30.243Z,67.37
2023-01-29T09:44:30.313Z,67.13
2023-01-29T09:45:30.212Z,66.75
2023-01-29T09:46:29.382Z,69.62
2023-01-29T09:47:30.273Z,68.24
2023-01-29T09:48:30.008Z,69.14
2023-01-29T09:49:30.141Z,65.90
2023-01-29T09:50:30.295Z,66.80
2023-01-29T09:51:30.094Z,64.52
2023-01-29T09:52:30.222Z,63.87
2023-01-29T09:53:30.134Z,62.35
2023-01-29T09:54:30.026Z,64.90
2023-01-29T09:55:29.867Z,66.35
2023-01-29T09:56:30.083Z,66.12
2023-01-29T09:57:30.092Z,63.15
2023-01-29T09:58:30.251Z,64.56
2023-01-29T09:59:29.828Z,62.42
2023-01-29T10:00:30.118Z,63.66
2023-01-29T10:01:30.031Z,64.18
2023-01-29T10:02:30.162Z,64.39
2023-01-29T10:03:29.835Z,63.56
2023-01-29T10:04:30.933Z,64.87
2023-01-29T10:05:30.052Z,63.22
2023-01-29T10:06:30.076Z,63.43
2023-01-29T10:07:29.903Z,62.60
2023-01-29T10:08:29.953Z,61.87
2023-01-29T10:09:29.964Z,61.57
2023-01-29T10:10:30.887Z,60.74
2023-01-29T10:11:29.939Z,62.39
2023-01-29T10:12:29.719Z,64.25
2023-01-29T10:13:59.917Z,66.19
2023-01-29T10:15:00.592Z,64.23
2023-01-29T10:18:32.912Z,62.98
2023-01-29T10:19:31.891Z,62.05
2023-01-29T10:20:31.939Z,61.85
2023-01-29T10:23:18.820Z,62.77
2023-01-29T10:23:34.350Z,62.05
2023-01-29T10:24:32.581Z,61.95
2023-01-29T10:25:33.116Z,62.51
2023-01-29T10:26:32.742Z,64.68
2023-01-29T10:27:32.819Z,60.75
2023-01-29T10:28:32.756Z,60.65
2023-01-29T10:29:32.787Z,61.38
2023-01-29T10:30:32.625Z,62.07
2023-01-29T10:31:33.076Z,60.83
2023-01-29T10:32:32.654Z,61.97
2023-01-29T10:33:48.758Z,60.42
2023-01-29T10:34:33.379Z,58.56
2023-01-29T10:35:32.656Z,58.61
2023-01-29T10:36:32.634Z,59.70
2023-01-29T10:37:32.508Z,61.05
2023-01-29T10:38:32.667Z,60.42
2023-01-29T10:39:32.535Z,62.01
2023-01-29T10:40:32.639Z,62.91
2023-01-29T10:41:32.466Z,61.46
2023-01-29T10:42:32.751Z,62.29
2023-01-29T10:43:32.535Z,61.98
2023-01-29T10:44:32.526Z,63.50
2023-01-29T10:45:32.887Z,62.05
2023-01-29T10:46:32.687Z,62.88
2023-01-29T10:47:34.010Z,60.50
2023-01-29T10:48:31.839Z,58.77
2023-01-29T10:49:32.596Z,61.57
2023-01-29T10:50:32.685Z,59.52
2023-01-29T10:51:32.484Z,62.32
2023-01-29T10:52:32.556Z,59.14
2023-01-29T10:53:32.506Z,61.38
2023-01-29T10:54:32.495Z,60.56
2023-01-29T10:55:55.430Z,61.90
2023-01-29T10:56:33.567Z,60.48
2023-01-29T10:57:32.516Z,61.76
2023-01-29T10:58:32.263Z,62.24
2023-01-29T10:59:32.447Z,62.84
2023-01-29T11:00:32.306Z,59.73
2023-01-29T11:01:32.605Z,62.01
2023-01-29T11:02:32.646Z,63.46
2023-01-29T11:03:32.414Z,62.49
2023-01-29T11:04:32.606Z,60.94
2023-01-29T11:05:54.236Z,60.84
2023-01-29T11:06:32.511Z,59.50
2023-01-29T11:07:32.454Z,60.74
2023-01-29T11:08:32.586Z,59.42
2023-01-29T11:10:32.361Z,59.80
2023-01-29T11:11:32.235Z,60.94
2023-01-29T11:12:32.329Z,61.25
2023-01-29T11:13:33.579Z,62.98
2023-01-29T11:14:32.331Z,60.60
2023-01-29T11:15:33.430Z,62.02
2023-01-29T11:16:32.515Z,62.17
2023-01-29T11:17:32.895Z,59.59
2023-01-29T11:18:33.243Z,62.79
2023-01-29T11:19:32.763Z,59.72
2023-01-29T11:20:32.869Z,56.96
2023-01-29T11:21:32.224Z,59.55
2023-01-29T11:22:53.313Z,61.77
2023-01-29T11:23:32.914Z,58.67
2023-01-29T11:24:31.927Z,61.46
2023-01-29T11:34:18.884Z,60.38
2023-01-29T11:35:20.261Z,62.66
2023-01-29T11:36:42.532Z,63.69
2023-01-29T11:37:20.294Z,61.28
2023-01-29T11:40:41.247Z,58.02
2023-01-29T11:44:31.285Z,64.03
2023-01-29T11:46:41.584Z,63.31
2023-01-29T11:48:54.823Z,60.74
2023-01-29T11:49:52.344Z,59.19
2023-01-29T11:52:02.436Z,62.30
2023-01-29T11:54:13.326Z,61.11
2023-01-29T11:55:13.325Z,62.41
2023-01-29T11:58:34.732Z,65.66
2023-01-29T12:00:43.182Z,66.67
2023-01-29T12:02:06.100Z,65.25
2023-01-29T12:05:04.072Z,65.80
2023-01-29T12:07:14.433Z,66.45
2023-01-29T12:10:37.755Z,67.33
2023-01-29T12:12:46.852Z,68.26
2023-01-29T12:14:58.494Z,67.46
2023-01-29T12:15:58.692Z,67.05
2023-01-29T12:23:00.894Z,66.47
2023-01-29T12:24:22.883Z,66.47
2023-01-29T12:25:00.662Z,66.22
2023-01-29T12:26:00.907Z,65.16
2023-01-29T12:27:02.637Z,65.06
2023-01-29T12:28:00.647Z,64.85
2023-01-29T12:29:22.773Z,63.96
2023-01-29T12:30:01.003Z,62.02
2023-01-29T12:31:00.584Z,64.79
2023-01-29T12:32:22.454Z,66.83
2023-01-29T12:33:00.823Z,62.48
2023-01-29T12:34:23.635Z,62.37
2023-01-29T12:35:00.445Z,62.82
2023-01-29T12:36:22.392Z,65.62
2023-01-29T12:37:00.502Z,63.10
2023-01-29T12:38:22.386Z,63.10
2023-01-29T12:39:00.540Z,63.93
2023-01-29T12:40:22.395Z,63.90
2023-01-29T12:41:00.506Z,63.17
2023-01-29T12:42:21.885Z,63.25
2023-01-29T12:43:00.413Z,61.83
2023-01-29T12:44:00.022Z,63.48
2023-01-29T12:45:00.806Z,63.38
2023-01-29T12:46:22.880Z,64.83
2023-01-29T12:47:00.576Z,64.73
2023-01-29T12:48:00.364Z,65.66
2023-01-29T12:49:22.387Z,63.93
2023-01-29T12:50:00.316Z,62.06
2023-01-29T12:51:21.963Z,64.89
2023-01-29T12:52:00.492Z,66.47
2023-01-29T12:53:22.193Z,66.89
2023-01-29T12:54:00.293Z,66.30
2023-01-29T12:55:21.782Z,67.30
2023-01-29T12:56:00.627Z,67.30
2023-01-29T12:57:22.904Z,67.51
2023-01-29T12:58:00.340Z,65.72
2023-01-29T12:59:00.645Z,64.89
2023-01-29T13:00:22.559Z,64.72
2023-01-29T13:01:00.294Z,66.27
2023-01-29T13:02:00.306Z,65.72
2023-01-29T13:03:00.161Z,64.89
2023-01-29T13:04:00.334Z,64.79
2023-01-29T13:05:22.043Z,64.17
2023-01-29T13:06:01.558Z,67.10
2023-01-29T13:07:21.333Z,65.96
2023-01-29T13:08:00.362Z,66.68
2023-01-29T13:09:21.352Z,66.89
2023-01-29T13:10:00.363Z,67.13
2023-01-29T13:11:22.651Z,66.96
2023-01-29T13:12:00.522Z,68.30
2023-01-29T13:13:21.778Z,68.51
2023-01-29T13:14:00.251Z,67.89
2023-01-29T17:28:20.939Z,82.78
2023-01-29T17:29:20.692Z,82.39
2023-01-29T17:30:21.486Z,82.56
2023-01-29T17:31:20.891Z,83.09
2023-01-29T17:34:03.462Z,81.93
2023-01-29T17:35:03.921Z,82.35
2023-01-29T17:36:03.800Z,81.73
2023-01-29T17:37:03.983Z,81.41
2023-01-29T17:38:07.470Z,81.62
2023-01-29T17:39:06.046Z,81.90
2023-01-29T17:40:26.130Z,81.83
2023-01-29T17:41:04.183Z,81.69
2023-01-29T17:43:27.441Z,81.73
2023-01-29T17:46:58.008Z,82.67
2023-01-29T17:48:59.011Z,82.25
2023-01-29T17:50:21.296Z,81.83
2023-01-29T17:52:10.111Z,82.46
2023-01-29T17:53:09.717Z,82.46
2023-01-29T17:54:31.413Z,82.46
2023-01-29T17:55:31.510Z,82.88
2023-01-29T17:56:31.406Z,83.72
2023-01-29T17:57:43.407Z,83.61
2023-01-29T17:58:40.051Z,83.20
2023-01-29T18:00:02.052Z,82.67
2023-01-29T18:00:40.623Z,83.40
2023-01-29T18:02:50.784Z,83.40
2023-01-29T18:06:31.594Z,84.14
2023-01-29T18:08:20.962Z,83.93
2023-01-29T18:09:21.535Z,83.93
2023-01-29T18:10:43.898Z,83.93
2023-01-29T18:11:21.513Z,84.45
2023-01-29T18:15:52.758Z,84.25
2023-01-29T18:16:57.148Z,84.56
2023-01-29T18:18:42.194Z,84.03
2023-01-29T18:20:04.714Z,84.03
2023-01-29T18:20:42.492Z,84.14
2023-01-29T18:22:53.873Z,84.25
2023-01-29T18:28:16.975Z,84.98
2023-01-29T18:28:56.263Z,85.08
2023-01-29T18:33:59.551Z,84.14
2023-01-29T18:35:00.276Z,84.28
2023-01-29T18:37:11.495Z,84.60
2023-01-29T18:42:48.607Z,85.86
2023-01-29T19:28:06.532Z,83.44
2023-01-29T19:28:32.511Z,80.11
2023-01-29T19:30:41.555Z,79.69
2023-01-29T19:32:51.655Z,78.50
2023-01-29T19:35:02.043Z,77.48
2023-01-29T19:36:25.391Z,79.21
2023-01-29T19:37:24.142Z,80.08
2023-01-29T19:38:24.111Z,79.77
2023-01-29T19:40:12.395Z,81.16
2023-01-29T19:42:23.751Z,83.62
2023-01-29T19:43:24.214Z,83.62
2023-01-29T19:45:48.905Z,85.52
2023-01-29T19:47:45.561Z,84.99
2023-01-29T19:48:45.861Z,84.36
2023-01-29T19:50:55.884Z,83.73
2023-01-29T19:53:06.841Z,84.40
2023-01-29T19:54:07.593Z,85.24
2023-01-29T19:56:17.530Z,84.78
2023-01-29T19:58:28.570Z,84.92
2023-01-29T19:59:29.287Z,84.82
2023-01-29T20:01:38.943Z,84.40
2023-01-29T20:04:43.111Z,84.71
2023-01-29T20:05:22.602Z,84.23
2023-01-29T20:06:22.645Z,84.33
2023-01-29T20:07:22.472Z,85.53
2023-01-29T20:08:22.711Z,85.53
2023-01-29T20:09:22.690Z,85.74
2023-01-29T20:10:22.381Z,85.85
2023-01-29T20:11:22.438Z,85.74
2023-01-29T20:12:22.642Z,86.05
2023-01-29T20:13:22.189Z,85.63
2023-01-29T20:14:22.670Z,85.42
2023-01-29T20:15:22.208Z,85.53
2023-01-29T20:16:44.272Z,85.63
2023-01-29T20:17:22.160Z,85.74
2023-01-29T20:18:22.423Z,85.60
2023-01-29T20:19:22.742Z,85.60
2023-01-29T20:20:22.671Z,85.49
2023-01-29T20:21:22.725Z,85.28
2023-01-29T20:22:22.847Z,85.17
2023-01-29T20:23:36.758Z,84.86
2023-01-29T20:24:22.722Z,84.96
2023-01-29T20:25:22.731Z,85.17
2023-01-29T20:26:23.204Z,85.00
2023-01-29T20:27:22.479Z,85.11
2023-01-29T20:28:22.360Z,85.53